sensor_id;sensor_type;location;lat;lon;timestamp;P1;durP1;ratioP1;P2;durP2;ratioP2
15402;SDS011;7799;53.478;10.170;2022-12-18T00:00:06;16.20;;;11.43;;
15402;SDS011;7799;53.478;10.170;2022-12-18T00:02:39;15.10;;;11.03;;
15402;SDS011;7799;53.478;10.170;2022-12-18T00:05:07;11.00;;;9.57;;
15402;SDS011;7799;53.478;10.170;2022-12-18T00:07:33;12.53;;;9.23;;
15402;SDS011;7799;53.478;10.170;2022-12-18T00:10:02;9.57;;;7.83;;
15402;SDS011;7799;53.478;10.170;2022-12-18T00:12:29;9.60;;;8.10;;
15402;SDS011;7799;53.478;10.170;2022-12-18T00:14:56;10.67;;;8.87;;
15402;SDS011;7799;53.478;10.170;2022-12-18T00:17:23;13.00;;;9.03;;
15402;SDS011;7799;53.478;10.170;2022-12-18T00:19:50;11.17;;;9.07;;
15402;SDS011;7799;53.478;10.170;2022-12-18T00:22:18;10.07;;;8.73;;
15402;SDS011;7799;53.478;10.170;2022-12-18T00:24:44;9.30;;;7.23;;
15402;SDS011;7799;53.478;10.170;2022-12-18T00:27:11;7.60;;;6.77;;
15402;SDS011;7799;53.478;10.170;2022-12-18T00:29:38;8.70;;;7.17;;
15402;SDS011;7799;53.478;10.170;2022-12-18T00:32:04;10.07;;;7.20;;
15402;SDS011;7799;53.478;10.170;2022-12-18T00:34:31;9.43;;;6.87;;
15402;SDS011;7799;53.478;10.170;2022-12-18T00:36:58;7.80;;;6.67;;
15402;SDS011;7799;53.478;10.170;2022-12-18T00:39:26;6.13;;;4.83;;
15402;SDS011;7799;53.478;10.170;2022-12-18T00:41:52;5.80;;;4.37;;
15402;SDS011;7799;53.478;10.170;2022-12-18T00:44:36;5.63;;;4.47;;
15402;SDS011;7799;53.478;10.170;2022-12-18T00:47:03;7.33;;;6.60;;
15402;SDS011;7799;53.478;10.170;2022-12-18T00:49:30;7.73;;;6.73;;
15402;SDS011;7799;53.478;10.170;2022-12-18T00:51:56;8.70;;;7.17;;
15402;SDS011;7799;53.478;10.170;2022-12-18T00:54:23;9.00;;;7.00;;
15402;SDS011;7799;53.478;10.170;2022-12-18T00:56:51;8.50;;;6.47;;
15402;SDS011;7799;53.478;10.170;2022-12-18T00:59:20;8.03;;;6.30;;
15402;SDS011;7799;53.478;10.170;2022-12-18T01:01:47;7.63;;;6.30;;
15402;SDS011;7799;53.478;10.170;2022-12-18T01:04:13;9.37;;;7.13;;
15402;SDS011;7799;53.478;10.170;2022-12-18T01:06:44;9.40;;;6.87;;
15402;SDS011;7799;53.478;10.170;2022-12-18T01:09:10;8.83;;;6.57;;
15402;SDS011;7799;53.478;10.170;2022-12-18T01:11:37;9.33;;;7.87;;
15402;SDS011;7799;53.478;10.170;2022-12-18T01:14:05;10.43;;;7.87;;
15402;SDS011;7799;53.478;10.170;2022-12-18T01:16:32;13.23;;;8.03;;
15402;SDS011;7799;53.478;10.170;2022-12-18T01:18:58;10.17;;;8.37;;
15402;SDS011;7799;53.478;10.170;2022-12-18T01:21:26;12.40;;;9.27;;
15402;SDS011;7799;53.478;10.170;2022-12-18T01:23:53;12.57;;;9.33;;
15402;SDS011;7799;53.478;10.170;2022-12-18T01:26:22;13.03;;;10.07;;
15402;SDS011;7799;53.478;10.170;2022-12-18T01:28:49;14.13;;;9.50;;
15402;SDS011;7799;53.478;10.170;2022-12-18T01:31:19;12.30;;;8.83;;
15402;SDS011;7799;53.478;10.170;2022-12-18T01:33:46;10.20;;;8.53;;
15402;SDS011;7799;53.478;10.170;2022-12-18T01:36:15;12.10;;;8.43;;
15402;SDS011;7799;53.478;10.170;2022-12-18T01:38:42;10.63;;;8.67;;
15402;SDS011;7799;53.478;10.170;2022-12-18T01:41:09;9.23;;;7.30;;
15402;SDS011;7799;53.478;10.170;2022-12-18T01:43:47;10.10;;;8.17;;
15402;SDS011;7799;53.478;10.170;2022-12-18T01:46:15;9.20;;;7.23;;
15402;SDS011;7799;53.478;10.170;2022-12-18T01:48:44;10.77;;;8.27;;
15402;SDS011;7799;53.478;10.170;2022-12-18T01:51:12;9.23;;;7.30;;
15402;SDS011;7799;53.478;10.170;2022-12-18T01:53:40;8.37;;;6.70;;
15402;SDS011;7799;53.478;10.170;2022-12-18T01:56:14;7.73;;;6.20;;
15402;SDS011;7799;53.478;10.170;2022-12-18T01:58:46;6.47;;;5.13;;
15402;SDS011;7799;53.478;10.170;2022-12-18T02:01:22;5.47;;;4.90;;
15402;SDS011;7799;53.478;10.170;2022-12-18T02:03:50;5.20;;;4.53;;
15402;SDS011;7799;53.478;10.170;2022-12-18T02:06:18;5.37;;;4.40;;
15402;SDS011;7799;53.478;10.170;2022-12-18T02:08:53;4.73;;;4.30;;
15402;SDS011;7799;53.478;10.170;2022-12-18T02:11:30;5.03;;;4.50;;
15402;SDS011;7799;53.478;10.170;2022-12-18T02:14:04;4.07;;;3.57;;
15402;SDS011;7799;53.478;10.170;2022-12-18T02:16:39;6.10;;;5.03;;
15402;SDS011;7799;53.478;10.170;2022-12-18T02:19:15;5.53;;;4.53;;
15402;SDS011;7799;53.478;10.170;2022-12-18T02:21:52;6.40;;;4.43;;
15402;SDS011;7799;53.478;10.170;2022-12-18T02:24:25;5.00;;;4.50;;
15402;SDS011;7799;53.478;10.170;2022-12-18T02:26:58;5.53;;;3.87;;
15402;SDS011;7799;53.478;10.170;2022-12-18T02:29:29;7.20;;;4.50;;
15402;SDS011;7799;53.478;10.170;2022-12-18T02:32:00;4.87;;;3.83;;
15402;SDS011;7799;53.478;10.170;2022-12-18T02:34:30;5.87;;;4.27;;
15402;SDS011;7799;53.478;10.170;2022-12-18T02:36:58;5.93;;;4.20;;
15402;SDS011;7799;53.478;10.170;2022-12-18T02:39:27;7.37;;;4.90;;
15402;SDS011;7799;53.478;10.170;2022-12-18T02:42:01;6.90;;;5.97;;
15402;SDS011;7799;53.478;10.170;2022-12-18T02:44:32;6.17;;;5.03;;
15402;SDS011;7799;53.478;10.170;2022-12-18T02:46:59;6.90;;;5.83;;
15402;SDS011;7799;53.478;10.170;2022-12-18T02:49:29;6.30;;;4.80;;
15402;SDS011;7799;53.478;10.170;2022-12-18T02:52:02;6.53;;;4.83;;
15402;SDS011;7799;53.478;10.170;2022-12-18T02:54:36;4.30;;;3.90;;
15402;SDS011;7799;53.478;10.170;2022-12-18T02:57:12;7.07;;;5.50;;
15402;SDS011;7799;53.478;10.170;2022-12-18T02:59:45;6.50;;;4.77;;
15402;SDS011;7799;53.478;10.170;2022-12-18T03:02:17;6.23;;;4.13;;
15402;SDS011;7799;53.478;10.170;2022-12-18T03:04:50;5.50;;;4.77;;
15402;SDS011;7799;53.478;10.170;2022-12-18T03:07:23;6.50;;;5.13;;
15402;SDS011;7799;53.478;10.170;2022-12-18T03:09:54;4.40;;;4.00;;
15402;SDS011;7799;53.478;10.170;2022-12-18T03:12:23;4.50;;;3.73;;
15402;SDS011;7799;53.478;10.170;2022-12-18T03:14:57;3.40;;;2.97;;
15402;SDS011;7799;53.478;10.170;2022-12-18T03:17:26;4.43;;;3.33;;
15402;SDS011;7799;53.478;10.170;2022-12-18T03:19:54;4.30;;;3.07;;
15402;SDS011;7799;53.478;10.170;2022-12-18T03:22:24;4.13;;;2.87;;
15402;SDS011;7799;53.478;10.170;2022-12-18T03:24:53;3.97;;;3.07;;
15402;SDS011;7799;53.478;10.170;2022-12-18T03:27:20;3.67;;;2.87;;
15402;SDS011;7799;53.478;10.170;2022-12-18T03:29:52;3.57;;;3.27;;
15402;SDS011;7799;53.478;10.170;2022-12-18T03:32:26;4.57;;;3.20;;
15402;SDS011;7799;53.478;10.170;2022-12-18T03:34:58;4.87;;;3.90;;
15402;SDS011;7799;53.478;10.170;2022-12-18T03:37:30;4.93;;;4.43;;
15402;SDS011;7799;53.478;10.170;2022-12-18T03:39:57;5.60;;;4.63;;
15402;SDS011;7799;53.478;10.170;2022-12-18T03:42:26;8.17;;;6.30;;
15402;SDS011;7799;53.478;10.170;2022-12-18T03:45:06;9.03;;;6.27;;
15402;SDS011;7799;53.478;10.170;2022-12-18T03:47:38;9.23;;;6.70;;
15402;SDS011;7799;53.478;10.170;2022-12-18T03:50:10;8.97;;;7.60;;
15402;SDS011;7799;53.478;10.170;2022-12-18T03:52:44;12.60;;;8.47;;
15402;SDS011;7799;53.478;10.170;2022-12-18T03:55:13;10.10;;;8.47;;
15402;SDS011;7799;53.478;10.170;2022-12-18T03:57:43;9.07;;;6.97;;
15402;SDS011;7799;53.478;10.170;2022-12-18T04:00:11;7.57;;;6.30;;
15402;SDS011;7799;53.478;10.170;2022-12-18T04:02:54;8.73;;;6.57;;
15402;SDS011;7799;53.478;10.170;2022-12-18T04:05:30;9.10;;;7.43;;
15402;SDS011;7799;53.478;10.170;2022-12-18T04:07:57;8.90;;;7.50;;
15402;SDS011;7799;53.478;10.170;2022-12-18T04:10:24;9.77;;;7.93;;
15402;SDS011;7799;53.478;10.170;2022-12-18T04:12:52;9.50;;;6.70;;
15402;SDS011;7799;53.478;10.170;2022-12-18T04:15:22;9.57;;;7.70;;
15402;SDS011;7799;53.478;10.170;2022-12-18T04:17:50;9.80;;;7.33;;
15402;SDS011;7799;53.478;10.170;2022-12-18T04:20:20;9.30;;;7.03;;
15402;SDS011;7799;53.478;10.170;2022-12-18T04:22:47;10.97;;;8.37;;
15402;SDS011;7799;53.478;10.170;2022-12-18T04:25:14;10.20;;;7.90;;
15402;SDS011;7799;53.478;10.170;2022-12-18T04:27:54;11.27;;;7.47;;
15402;SDS011;7799;53.478;10.170;2022-12-18T04:30:21;11.23;;;7.37;;
15402;SDS011;7799;53.478;10.170;2022-12-18T04:32:48;10.40;;;8.47;;
15402;SDS011;7799;53.478;10.170;2022-12-18T04:35:15;10.80;;;7.93;;
15402;SDS011;7799;53.478;10.170;2022-12-18T04:37:43;8.73;;;6.47;;
15402;SDS011;7799;53.478;10.170;2022-12-18T04:40:10;6.93;;;6.17;;
15402;SDS011;7799;53.478;10.170;2022-12-18T04:42:41;7.67;;;5.43;;
15402;SDS011;7799;53.478;10.170;2022-12-18T04:45:09;7.13;;;4.83;;
15402;SDS011;7799;53.478;10.170;2022-12-18T04:47:36;6.40;;;5.70;;
15402;SDS011;7799;53.478;10.170;2022-12-18T04:50:03;8.83;;;6.17;;
15402;SDS011;7799;53.478;10.170;2022-12-18T04:52:30;10.60;;;7.40;;
15402;SDS011;7799;53.478;10.170;2022-12-18T04:54:57;11.63;;;7.83;;
15402;SDS011;7799;53.478;10.170;2022-12-18T04:57:24;11.77;;;8.77;;
15402;SDS011;7799;53.478;10.170;2022-12-18T04:59:51;11.13;;;7.90;;
15402;SDS011;7799;53.478;10.170;2022-12-18T05:02:20;10.73;;;8.33;;
15402;SDS011;7799;53.478;10.170;2022-12-18T05:04:47;13.27;;;9.00;;
15402;SDS011;7799;53.478;10.170;2022-12-18T05:07:13;9.27;;;7.90;;
15402;SDS011;7799;53.478;10.170;2022-12-18T05:09:40;9.00;;;7.77;;
15402;SDS011;7799;53.478;10.170;2022-12-18T05:12:06;10.10;;;7.50;;
15402;SDS011;7799;53.478;10.170;2022-12-18T05:14:33;8.53;;;7.30;;
15402;SDS011;7799;53.478;10.170;2022-12-18T05:17:00;7.83;;;6.70;;
15402;SDS011;7799;53.478;10.170;2022-12-18T05:19:28;7.03;;;6.27;;
15402;SDS011;7799;53.478;10.170;2022-12-18T05:21:54;8.37;;;6.40;;
15402;SDS011;7799;53.478;10.170;2022-12-18T05:24:21;9.53;;;6.33;;
15402;SDS011;7799;53.478;10.170;2022-12-18T05:26:48;10.50;;;8.20;;
15402;SDS011;7799;53.478;10.170;2022-12-18T05:29:14;12.43;;;8.73;;
15402;SDS011;7799;53.478;10.170;2022-12-18T05:31:41;11.40;;;8.53;;
15402;SDS011;7799;53.478;10.170;2022-12-18T05:34:08;12.33;;;8.60;;
15402;SDS011;7799;53.478;10.170;2022-12-18T05:36:36;9.43;;;8.00;;
15402;SDS011;7799;53.478;10.170;2022-12-18T05:39:03;10.23;;;8.27;;
15402;SDS011;7799;53.478;10.170;2022-12-18T05:41:29;11.77;;;9.00;;
15402;SDS011;7799;53.478;10.170;2022-12-18T05:43:56;11.13;;;8.80;;
15402;SDS011;7799;53.478;10.170;2022-12-18T05:46:22;10.20;;;8.30;;
15402;SDS011;7799;53.478;10.170;2022-12-18T05:48:49;14.23;;;10.23;;
15402;SDS011;7799;53.478;10.170;2022-12-18T05:51:19;12.90;;;9.40;;
15402;SDS011;7799;53.478;10.170;2022-12-18T05:53:49;15.37;;;10.10;;
15402;SDS011;7799;53.478;10.170;2022-12-18T05:56:16;14.27;;;9.87;;
15402;SDS011;7799;53.478;10.170;2022-12-18T05:58:45;12.47;;;9.30;;
15402;SDS011;7799;53.478;10.170;2022-12-18T06:01:13;11.13;;;9.03;;
15402;SDS011;7799;53.478;10.170;2022-12-18T06:03:41;16.77;;;10.13;;
15402;SDS011;7799;53.478;10.170;2022-12-18T06:06:14;14.70;;;9.37;;
15402;SDS011;7799;53.478;10.170;2022-12-18T06:08:42;11.83;;;8.60;;
15402;SDS011;7799;53.478;10.170;2022-12-18T06:11:10;11.10;;;8.60;;
15402;SDS011;7799;53.478;10.170;2022-12-18T06:13:37;9.30;;;7.23;;
15402;SDS011;7799;53.478;10.170;2022-12-18T06:16:04;8.70;;;6.83;;
15402;SDS011;7799;53.478;10.170;2022-12-18T06:18:31;11.20;;;8.87;;
15402;SDS011;7799;53.478;10.170;2022-12-18T06:20:58;10.17;;;8.23;;
15402;SDS011;7799;53.478;10.170;2022-12-18T06:23:26;11.67;;;7.73;;
15402;SDS011;7799;53.478;10.170;2022-12-18T06:25:52;11.57;;;8.17;;
15402;SDS011;7799;53.478;10.170;2022-12-18T06:28:20;11.20;;;8.73;;
15402;SDS011;7799;53.478;10.170;2022-12-18T06:30:47;12.43;;;8.97;;
15402;SDS011;7799;53.478;10.170;2022-12-18T06:33:14;14.67;;;10.07;;
15402;SDS011;7799;53.478;10.170;2022-12-18T06:35:41;11.20;;;9.20;;
15402;SDS011;7799;53.478;10.170;2022-12-18T06:38:08;15.87;;;9.87;;
15402;SDS011;7799;53.478;10.170;2022-12-18T06:40:35;15.37;;;11.03;;
15402;SDS011;7799;53.478;10.170;2022-12-18T06:43:03;14.33;;;10.13;;
15402;SDS011;7799;53.478;10.170;2022-12-18T06:45:31;14.17;;;9.53;;
15402;SDS011;7799;53.478;10.170;2022-12-18T06:47:57;14.67;;;11.13;;
15402;SDS011;7799;53.478;10.170;2022-12-18T06:50:27;17.50;;;11.63;;
15402;SDS011;7799;53.478;10.170;2022-12-18T06:52:54;19.20;;;12.13;;
15402;SDS011;7799;53.478;10.170;2022-12-18T06:55:20;17.70;;;12.40;;
15402;SDS011;7799;53.478;10.170;2022-12-18T06:57:47;15.27;;;11.93;;
15402;SDS011;7799;53.478;10.170;2022-12-18T07:00:14;18.37;;;13.43;;
15402;SDS011;7799;53.478;10.170;2022-12-18T07:02:45;15.83;;;10.90;;
15402;SDS011;7799;53.478;10.170;2022-12-18T07:05:12;18.13;;;11.30;;
15402;SDS011;7799;53.478;10.170;2022-12-18T07:07:38;17.17;;;11.80;;
15402;SDS011;7799;53.478;10.170;2022-12-18T07:10:05;18.10;;;12.90;;
15402;SDS011;7799;53.478;10.170;2022-12-18T07:12:32;19.57;;;13.57;;
15402;SDS011;7799;53.478;10.170;2022-12-18T07:14:59;17.33;;;11.97;;
15402;SDS011;7799;53.478;10.170;2022-12-18T07:17:25;17.77;;;12.53;;
15402;SDS011;7799;53.478;10.170;2022-12-18T07:19:53;15.27;;;11.27;;
15402;SDS011;7799;53.478;10.170;2022-12-18T07:22:20;17.80;;;11.90;;
15402;SDS011;7799;53.478;10.170;2022-12-18T07:24:47;18.30;;;13.10;;
15402;SDS011;7799;53.478;10.170;2022-12-18T07:27:14;19.67;;;13.00;;
15402;SDS011;7799;53.478;10.170;2022-12-18T07:29:40;21.53;;;12.93;;
15402;SDS011;7799;53.478;10.170;2022-12-18T07:32:07;17.87;;;12.23;;
15402;SDS011;7799;53.478;10.170;2022-12-18T07:34:34;20.90;;;13.53;;
15402;SDS011;7799;53.478;10.170;2022-12-18T07:37:02;21.33;;;13.80;;
15402;SDS011;7799;53.478;10.170;2022-12-18T07:39:29;23.47;;;14.80;;
15402;SDS011;7799;53.478;10.170;2022-12-18T07:41:55;18.67;;;13.77;;
15402;SDS011;7799;53.478;10.170;2022-12-18T07:44:39;20.10;;;13.87;;
15402;SDS011;7799;53.478;10.170;2022-12-18T07:47:06;18.63;;;12.43;;
15402;SDS011;7799;53.478;10.170;2022-12-18T07:49:33;16.73;;;11.93;;
15402;SDS011;7799;53.478;10.170;2022-12-18T07:51:59;21.73;;;13.43;;
15402;SDS011;7799;53.478;10.170;2022-12-18T07:54:27;16.17;;;12.13;;
15402;SDS011;7799;53.478;10.170;2022-12-18T07:56:54;18.30;;;12.70;;
15402;SDS011;7799;53.478;10.170;2022-12-18T07:59:21;16.13;;;10.93;;
15402;SDS011;7799;53.478;10.170;2022-12-18T08:01:47;15.53;;;10.97;;
15402;SDS011;7799;53.478;10.170;2022-12-18T08:04:14;18.03;;;12.33;;
15402;SDS011;7799;53.478;10.170;2022-12-18T08:06:44;14.93;;;11.10;;
15402;SDS011;7799;53.478;10.170;2022-12-18T08:09:12;17.40;;;11.43;;
15402;SDS011;7799;53.478;10.170;2022-12-18T08:11:39;16.50;;;12.30;;
15402;SDS011;7799;53.478;10.170;2022-12-18T08:14:05;14.23;;;9.97;;
15402;SDS011;7799;53.478;10.170;2022-12-18T08:16:32;16.97;;;11.80;;
15402;SDS011;7799;53.478;10.170;2022-12-18T08:18:59;19.27;;;13.60;;
15402;SDS011;7799;53.478;10.170;2022-12-18T08:21:26;16.97;;;11.47;;
15402;SDS011;7799;53.478;10.170;2022-12-18T08:23:54;18.83;;;12.80;;
15402;SDS011;7799;53.478;10.170;2022-12-18T08:26:22;21.00;;;14.07;;
15402;SDS011;7799;53.478;10.170;2022-12-18T08:28:50;21.17;;;13.37;;
15402;SDS011;7799;53.478;10.170;2022-12-18T08:31:17;17.10;;;12.83;;
15402;SDS011;7799;53.478;10.170;2022-12-18T08:33:44;19.07;;;12.00;;
15402;SDS011;7799;53.478;10.170;2022-12-18T08:36:10;18.33;;;12.40;;
15402;SDS011;7799;53.478;10.170;2022-12-18T08:38:37;20.80;;;13.50;;
15402;SDS011;7799;53.478;10.170;2022-12-18T08:41:05;17.33;;;11.63;;
15402;SDS011;7799;53.478;10.170;2022-12-18T08:43:34;17.20;;;12.97;;
15402;SDS011;7799;53.478;10.170;2022-12-18T08:46:18;18.87;;;13.33;;
15402;SDS011;7799;53.478;10.170;2022-12-18T08:48:46;19.83;;;14.03;;
15402;SDS011;7799;53.478;10.170;2022-12-18T08:51:12;22.60;;;14.23;;
15402;SDS011;7799;53.478;10.170;2022-12-18T08:53:39;18.47;;;13.30;;
15402;SDS011;7799;53.478;10.170;2022-12-18T08:56:06;19.50;;;14.47;;
15402;SDS011;7799;53.478;10.170;2022-12-18T08:58:34;20.23;;;14.13;;
15402;SDS011;7799;53.478;10.170;2022-12-18T09:01:01;21.57;;;14.67;;
15402;SDS011;7799;53.478;10.170;2022-12-18T09:03:29;21.90;;;15.47;;
15402;SDS011;7799;53.478;10.170;2022-12-18T09:05:56;21.03;;;14.37;;
15402;SDS011;7799;53.478;10.170;2022-12-18T09:08:22;19.30;;;14.37;;
15402;SDS011;7799;53.478;10.170;2022-12-18T09:10:49;21.03;;;14.93;;
15402;SDS011;7799;53.478;10.170;2022-12-18T09:13:16;17.93;;;14.77;;
15402;SDS011;7799;53.478;10.170;2022-12-18T09:15:46;18.17;;;14.03;;
15402;SDS011;7799;53.478;10.170;2022-12-18T09:18:14;19.83;;;13.70;;
15402;SDS011;7799;53.478;10.170;2022-12-18T09:20:41;18.20;;;13.50;;
15402;SDS011;7799;53.478;10.170;2022-12-18T09:23:08;17.90;;;12.80;;
15402;SDS011;7799;53.478;10.170;2022-12-18T09:25:35;20.90;;;13.80;;
15402;SDS011;7799;53.478;10.170;2022-12-18T09:28:03;19.37;;;14.40;;
15402;SDS011;7799;53.478;10.170;2022-12-18T09:30:31;21.40;;;13.83;;
15402;SDS011;7799;53.478;10.170;2022-12-18T09:33:00;17.73;;;13.77;;
15402;SDS011;7799;53.478;10.170;2022-12-18T09:35:27;20.03;;;14.30;;
15402;SDS011;7799;53.478;10.170;2022-12-18T09:37:54;17.00;;;13.13;;
15402;SDS011;7799;53.478;10.170;2022-12-18T09:40:21;17.90;;;13.37;;
15402;SDS011;7799;53.478;10.170;2022-12-18T09:42:50;17.73;;;14.13;;
15402;SDS011;7799;53.478;10.170;2022-12-18T09:45:19;17.97;;;12.87;;
15402;SDS011;7799;53.478;10.170;2022-12-18T09:47:46;15.33;;;12.43;;
15402;SDS011;7799;53.478;10.170;2022-12-18T09:50:22;18.03;;;13.03;;
15402;SDS011;7799;53.478;10.170;2022-12-18T09:52:56;17.17;;;12.63;;
15402;SDS011;7799;53.478;10.170;2022-12-18T09:55:25;16.50;;;13.30;;
15402;SDS011;7799;53.478;10.170;2022-12-18T09:57:55;18.93;;;13.63;;
15402;SDS011;7799;53.478;10.170;2022-12-18T10:00:24;17.20;;;13.40;;
15402;SDS011;7799;53.478;10.170;2022-12-18T10:02:51;20.73;;;14.80;;
15402;SDS011;7799;53.478;10.170;2022-12-18T10:05:24;18.47;;;13.80;;
15402;SDS011;7799;53.478;10.170;2022-12-18T10:07:58;19.93;;;14.90;;
15402;SDS011;7799;53.478;10.170;2022-12-18T10:10:31;19.93;;;13.90;;
15402;SDS011;7799;53.478;10.170;2022-12-18T10:13:06;17.33;;;13.53;;
15402;SDS011;7799;53.478;10.170;2022-12-18T10:15:36;15.97;;;12.40;;
15402;SDS011;7799;53.478;10.170;2022-12-18T10:18:12;18.83;;;14.07;;
15402;SDS011;7799;53.478;10.170;2022-12-18T10:20:46;15.90;;;12.50;;
15402;SDS011;7799;53.478;10.170;2022-12-18T10:23:16;20.40;;;14.93;;
15402;SDS011;7799;53.478;10.170;2022-12-18T10:25:51;17.77;;;14.00;;
15402;SDS011;7799;53.478;10.170;2022-12-18T10:28:20;18.87;;;13.97;;
15402;SDS011;7799;53.478;10.170;2022-12-18T10:30:46;16.53;;;13.10;;
15402;SDS011;7799;53.478;10.170;2022-12-18T10:33:13;17.23;;;13.77;;
15402;SDS011;7799;53.478;10.170;2022-12-18T10:35:42;17.77;;;13.77;;
15402;SDS011;7799;53.478;10.170;2022-12-18T10:38:21;17.00;;;13.67;;
15402;SDS011;7799;53.478;10.170;2022-12-18T10:40:50;17.77;;;14.60;;
15402;SDS011;7799;53.478;10.170;2022-12-18T10:43:22;15.83;;;11.73;;
15402;SDS011;7799;53.478;10.170;2022-12-18T10:46:01;17.17;;;13.13;;
15402;SDS011;7799;53.478;10.170;2022-12-18T10:48:39;15.60;;;12.27;;
15402;SDS011;7799;53.478;10.170;2022-12-18T10:51:07;15.43;;;11.63;;
15402;SDS011;7799;53.478;10.170;2022-12-18T10:53:36;16.47;;;12.73;;
15402;SDS011;7799;53.478;10.170;2022-12-18T10:56:04;16.07;;;11.47;;
15402;SDS011;7799;53.478;10.170;2022-12-18T10:58:32;17.83;;;13.30;;
15402;SDS011;7799;53.478;10.170;2022-12-18T11:01:07;20.93;;;14.20;;
15402;SDS011;7799;53.478;10.170;2022-12-18T11:03:36;17.60;;;14.07;;
15402;SDS011;7799;53.478;10.170;2022-12-18T11:06:05;17.10;;;13.30;;
15402;SDS011;7799;53.478;10.170;2022-12-18T11:08:36;17.10;;;12.87;;
15402;SDS011;7799;53.478;10.170;2022-12-18T11:11:03;18.97;;;15.10;;
15402;SDS011;7799;53.478;10.170;2022-12-18T11:13:33;18.90;;;13.33;;
15402;SDS011;7799;53.478;10.170;2022-12-18T11:16:00;19.10;;;14.13;;
15402;SDS011;7799;53.478;10.170;2022-12-18T11:18:28;17.30;;;13.27;;
15402;SDS011;7799;53.478;10.170;2022-12-18T11:20:56;16.80;;;12.80;;
15402;SDS011;7799;53.478;10.170;2022-12-18T11:23:24;14.87;;;12.07;;
15402;SDS011;7799;53.478;10.170;2022-12-18T11:25:53;18.20;;;13.23;;
15402;SDS011;7799;53.478;10.170;2022-12-18T11:28:29;18.10;;;13.37;;
15402;SDS011;7799;53.478;10.170;2022-12-18T11:31:18;17.77;;;13.80;;
15402;SDS011;7799;53.478;10.170;2022-12-18T11:33:51;16.27;;;12.07;;
15402;SDS011;7799;53.478;10.170;2022-12-18T11:36:28;19.20;;;13.80;;
15402;SDS011;7799;53.478;10.170;2022-12-18T11:38:57;19.13;;;13.50;;
15402;SDS011;7799;53.478;10.170;2022-12-18T11:41:28;19.43;;;14.73;;
15402;SDS011;7799;53.478;10.170;2022-12-18T11:44:11;20.90;;;15.30;;
15402;SDS011;7799;53.478;10.170;2022-12-18T11:46:43;17.47;;;12.50;;
15402;SDS011;7799;53.478;10.170;2022-12-18T11:49:14;16.67;;;13.07;;
15402;SDS011;7799;53.478;10.170;2022-12-18T11:51:45;17.77;;;13.53;;
15402;SDS011;7799;53.478;10.170;2022-12-18T11:54:15;19.77;;;14.23;;
15402;SDS011;7799;53.478;10.170;2022-12-18T11:56:44;19.10;;;15.20;;
15402;SDS011;7799;53.478;10.170;2022-12-18T11:59:15;20.17;;;14.87;;
15402;SDS011;7799;53.478;10.170;2022-12-18T12:01:46;21.07;;;15.10;;
15402;SDS011;7799;53.478;10.170;2022-12-18T12:07:25;18.17;;;14.63;;
15402;SDS011;7799;53.478;10.170;2022-12-18T12:10:00;20.37;;;14.00;;
15402;SDS011;7799;53.478;10.170;2022-12-18T12:12:34;19.43;;;14.03;;
15402;SDS011;7799;53.478;10.170;2022-12-18T12:15:13;15.87;;;13.03;;
15402;SDS011;7799;53.478;10.170;2022-12-18T12:17:47;18.30;;;12.87;;
15402;SDS011;7799;53.478;10.170;2022-12-18T12:20:20;18.33;;;13.70;;
15402;SDS011;7799;53.478;10.170;2022-12-18T12:22:50;21.57;;;14.27;;
15402;SDS011;7799;53.478;10.170;2022-12-18T12:25:27;18.67;;;12.97;;
15402;SDS011;7799;53.478;10.170;2022-12-18T12:28:01;17.33;;;12.80;;
15402;SDS011;7799;53.478;10.170;2022-12-18T12:30:35;20.20;;;13.33;;
15402;SDS011;7799;53.478;10.170;2022-12-18T12:33:12;19.10;;;13.23;;
15402;SDS011;7799;53.478;10.170;2022-12-18T12:35:46;17.47;;;12.37;;
15402;SDS011;7799;53.478;10.170;2022-12-18T12:38:19;17.03;;;12.37;;
15402;SDS011;7799;53.478;10.170;2022-12-18T12:40:52;20.80;;;12.87;;
15402;SDS011;7799;53.478;10.170;2022-12-18T12:43:25;20.53;;;14.10;;
15402;SDS011;7799;53.478;10.170;2022-12-18T12:45:55;17.67;;;12.30;;
15402;SDS011;7799;53.478;10.170;2022-12-18T12:48:31;17.87;;;12.07;;
15402;SDS011;7799;53.478;10.170;2022-12-18T12:51:01;18.00;;;12.23;;
15402;SDS011;7799;53.478;10.170;2022-12-18T12:53:31;20.87;;;13.27;;
15402;SDS011;7799;53.478;10.170;2022-12-18T12:56:00;20.20;;;14.10;;
15402;SDS011;7799;53.478;10.170;2022-12-18T12:58:31;20.43;;;14.00;;
15402;SDS011;7799;53.478;10.170;2022-12-18T13:01:04;21.03;;;12.87;;
15402;SDS011;7799;53.478;10.170;2022-12-18T13:03:41;22.60;;;13.60;;
15402;SDS011;7799;53.478;10.170;2022-12-18T13:06:11;20.63;;;13.23;;
15402;SDS011;7799;53.478;10.170;2022-12-18T13:08:53;20.27;;;13.30;;
15402;SDS011;7799;53.478;10.170;2022-12-18T13:11:28;18.07;;;11.77;;
15402;SDS011;7799;53.478;10.170;2022-12-18T13:14:21;17.07;;;12.07;;
15402;SDS011;7799;53.478;10.170;2022-12-18T13:16:49;16.77;;;12.97;;
15402;SDS011;7799;53.478;10.170;2022-12-18T13:19:20;18.20;;;12.37;;
15402;SDS011;7799;53.478;10.170;2022-12-18T13:21:51;21.37;;;13.07;;
15402;SDS011;7799;53.478;10.170;2022-12-18T13:24:22;20.43;;;12.80;;
15402;SDS011;7799;53.478;10.170;2022-12-18T13:26:50;19.47;;;13.00;;
15402;SDS011;7799;53.478;10.170;2022-12-18T13:32:19;19.03;;;12.27;;
15402;SDS011;7799;53.478;10.170;2022-12-18T13:34:46;18.67;;;12.43;;
15402;SDS011;7799;53.478;10.170;2022-12-18T13:43:23;20.97;;;13.60;;
15402;SDS011;7799;53.478;10.170;2022-12-18T13:46:02;21.67;;;12.53;;
15402;SDS011;7799;53.478;10.170;2022-12-18T13:48:32;21.77;;;14.07;;
15402;SDS011;7799;53.478;10.170;2022-12-18T13:51:00;22.67;;;13.27;;
15402;SDS011;7799;53.478;10.170;2022-12-18T13:53:31;18.20;;;12.50;;
15402;SDS011;7799;53.478;10.170;2022-12-18T13:56:01;23.20;;;13.53;;
15402;SDS011;7799;53.478;10.170;2022-12-18T13:58:28;16.67;;;11.80;;
15402;SDS011;7799;53.478;10.170;2022-12-18T14:00:55;19.40;;;13.10;;
15402;SDS011;7799;53.478;10.170;2022-12-18T14:03:26;19.80;;;11.80;;
15402;SDS011;7799;53.478;10.170;2022-12-18T14:05:54;20.23;;;12.90;;
15402;SDS011;7799;53.478;10.170;2022-12-18T14:08:23;18.00;;;11.97;;
15402;SDS011;7799;53.478;10.170;2022-12-18T14:10:51;17.70;;;11.60;;
15402;SDS011;7799;53.478;10.170;2022-12-18T14:13:21;19.57;;;11.60;;
15402;SDS011;7799;53.478;10.170;2022-12-18T14:15:51;22.60;;;12.33;;
15402;SDS011;7799;53.478;10.170;2022-12-18T14:18:19;18.57;;;11.97;;
15402;SDS011;7799;53.478;10.170;2022-12-18T14:20:49;18.60;;;12.90;;
15402;SDS011;7799;53.478;10.170;2022-12-18T14:23:30;18.40;;;12.63;;
15402;SDS011;7799;53.478;10.170;2022-12-18T14:25:58;19.83;;;12.53;;
15402;SDS011;7799;53.478;10.170;2022-12-18T14:28:27;25.33;;;16.20;;
15402;SDS011;7799;53.478;10.170;2022-12-18T14:30:54;23.77;;;15.17;;
15402;SDS011;7799;53.478;10.170;2022-12-18T14:33:22;24.20;;;16.40;;
15402;SDS011;7799;53.478;10.170;2022-12-18T14:35:56;29.17;;;16.93;;
15402;SDS011;7799;53.478;10.170;2022-12-18T14:38:26;29.97;;;17.70;;
15402;SDS011;7799;53.478;10.170;2022-12-18T14:40:55;25.73;;;17.50;;
15402;SDS011;7799;53.478;10.170;2022-12-18T14:43:26;30.03;;;17.60;;
15402;SDS011;7799;53.478;10.170;2022-12-18T14:45:54;23.77;;;15.27;;
15402;SDS011;7799;53.478;10.170;2022-12-18T14:48:21;28.60;;;17.00;;
15402;SDS011;7799;53.478;10.170;2022-12-18T14:51:00;27.80;;;17.77;;
15402;SDS011;7799;53.478;10.170;2022-12-18T14:53:37;33.27;;;18.90;;
15402;SDS011;7799;53.478;10.170;2022-12-18T14:56:17;31.80;;;18.60;;